createdAt,value
2023-02-17T00:00:03.899Z,5.21
2023-02-17T00:01:03.994Z,4.42
2023-02-17T00:02:03.898Z,5.18
2023-02-17T00:03:04.406Z,2.32
2023-02-17T00:04:04.200Z,3.41
2023-02-17T00:05:03.839Z,3.12
2023-02-17T00:06:04.904Z,2.9
2023-02-17T00:07:04.217Z,2.96
2023-02-17T00:08:03.923Z,3.22
2023-02-17T00:09:03.865Z,3.43
2023-02-17T00:10:04.357Z,2.42
2023-02-17T00:11:04.272Z,3.46
2023-02-17T00:12:04.135Z,2.9
2023-02-17T00:13:04.123Z,3.04
2023-02-17T00:14:03.798Z,4.12
2023-02-17T00:15:04.526Z,3.72
2023-02-17T00:16:04.545Z,3.22
2023-02-17T00:17:03.719Z,3.33
2023-02-17T00:18:03.699Z,2.95
2023-02-17T00:19:04.373Z,3.51
2023-02-17T00:20:03.985Z,3.65
2023-02-17T00:21:03.844Z,2.81
2023-02-17T00:22:04.594Z,5.96
2023-02-17T00:23:04.281Z,3.28
2023-02-17T00:24:03.992Z,2.26
2023-02-17T00:25:03.828Z,4.35
2023-02-17T00:26:04.495Z,2.88
2023-02-17T00:27:03.889Z,3.18
2023-02-17T00:28:04.565Z,5.34
2023-02-17T00:29:04.341Z,5.32
2023-02-17T00:30:04.227Z,3.32
2023-02-17T00:31:04.440Z,4.96
2023-02-17T00:32:04.253Z,3.15
2023-02-17T00:33:03.836Z,2.68
2023-02-17T00:34:04.473Z,4.1
2023-02-17T00:35:04.315Z,4.29
2023-02-17T00:36:04.314Z,3.56
2023-02-17T00:37:03.508Z,3.32
2023-02-17T00:38:04.430Z,4.54
2023-02-17T00:39:04.187Z,4.96
2023-02-17T00:40:03.632Z,4.06
2023-02-17T00:41:04.514Z,3.22
2023-02-17T00:42:04.020Z,2.58
2023-02-17T00:43:03.801Z,3.9
2023-02-17T00:44:04.657Z,3.9
2023-02-17T00:45:04.222Z,5.94
2023-02-17T00:46:04.360Z,4.62
2023-02-17T00:47:03.790Z,4.47
2023-02-17T00:48:03.831Z,3.29
2023-02-17T00:49:04.254Z,3.05
2023-02-17T00:50:04.082Z,4.04
2023-02-17T00:51:03.683Z,4.78
2023-02-17T00:52:04.429Z,3.33
2023-02-17T00:53:04.062Z,4.48
2023-02-17T00:54:03.695Z,4.36
2023-02-17T00:55:03.526Z,2.25
2023-02-17T00:56:04.450Z,3.84
2023-02-17T00:57:04.118Z,3.92
2023-02-17T00:58:03.736Z,3.34
2023-02-17T00:59:04.524Z,3.59
2023-02-17T01:00:04.169Z,3.71
2023-02-17T01:01:04.028Z,3.34
2023-02-17T01:02:04.071Z,3.24
2023-02-17T01:03:03.783Z,4.29
2023-02-17T01:04:04.455Z,3.72
2023-02-17T01:05:04.101Z,3.84
2023-02-17T01:06:04.076Z,3.52
2023-02-17T01:07:04.511Z,3.75
2023-02-17T01:08:04.459Z,3.45
2023-02-17T01:09:04.162Z,3.92
2023-02-17T01:10:04.033Z,2.64
2023-02-17T01:11:03.579Z,3.22
2023-02-17T01:12:04.279Z,2.67
2023-02-17T01:13:03.969Z,3.11
2023-02-17T01:14:03.698Z,3.49
2023-02-17T01:15:04.436Z,2.88
2023-02-17T01:16:04.372Z,3.68
2023-02-17T01:17:03.880Z,5.64
2023-02-17T01:18:04.367Z,3.27
2023-02-17T01:19:04.027Z,2.73
2023-02-17T01:20:03.958Z,2.16
2023-02-17T01:21:04.363Z,3.83
2023-02-17T01:22:03.936Z,4.11
2023-02-17T01:23:04.355Z,2.84
2023-02-17T01:24:04.229Z,4.04
2023-02-17T01:25:04.018Z,2.96
2023-02-17T01:26:04.936Z,4.26
2023-02-17T01:27:04.429Z,4.07
2023-02-17T01:28:04.270Z,3.59
2023-02-17T01:29:03.941Z,2.64
2023-02-17T01:30:04.566Z,2.59
2023-02-17T01:31:04.364Z,3.77
2023-02-17T01:32:03.838Z,3.72
2023-02-17T01:33:04.241Z,3.72
2023-02-17T01:34:04.019Z,3.04
2023-02-17T01:35:03.674Z,3.14
2023-02-17T01:36:04.706Z,3.14
2023-02-17T01:37:04.093Z,2.85
2023-02-17T01:38:03.671Z,3.75
2023-02-17T01:39:04.353Z,2.89
2023-02-17T01:40:04.001Z,3.48
2023-02-17T01:41:03.624Z,3.56
2023-02-17T01:42:04.472Z,3.28
2023-02-17T01:43:04.059Z,3.29
2023-02-17T01:44:03.680Z,2.77
2023-02-17T01:45:04.389Z,3.94
2023-02-17T01:46:04.836Z,3.19
2023-02-17T01:47:04.275Z,3.86
2023-02-17T01:48:03.912Z,3.1
2023-02-17T01:49:03.745Z,3.44
2023-02-17T01:50:04.324Z,3.69
2023-02-17T01:51:04.172Z,4.65
2023-02-17T01:52:03.786Z,4.14
2023-02-17T01:53:04.553Z,3.53
2023-02-17T01:54:04.489Z,3.52
2023-02-17T01:55:03.949Z,1.79
2023-02-17T01:56:03.971Z,2.64
2023-02-17T01:57:04.522Z,2.75
2023-02-17T01:58:04.162Z,3.42
2023-02-17T01:59:04.003Z,2.35
2023-02-17T02:00:03.766Z,3.3
2023-02-17T02:01:04.387Z,3.21
2023-02-17T02:02:04.245Z,2.53
2023-02-17T02:03:03.897Z,3.89
2023-02-17T02:04:04.653Z,3.61
2023-02-17T02:05:04.287Z,3.33
2023-02-17T02:06:04.322Z,3.51
2023-02-17T02:07:03.638Z,3.54
2023-02-17T02:08:03.612Z,3.6
2023-02-17T02:09:04.598Z,3.35
2023-02-17T02:10:04.167Z,2.69
2023-02-17T02:11:03.743Z,3.75
2023-02-17T02:12:04.488Z,3.46
2023-02-17T02:13:04.143Z,3.8
2023-02-17T02:14:03.955Z,3
2023-02-17T02:15:03.705Z,4.12
2023-02-17T02:16:04.670Z,4.49
2023-02-17T02:17:04.259Z,4.35
2023-02-17T02:18:03.798Z,3.56
2023-02-17T02:19:03.903Z,4.81
2023-02-17T02:20:04.505Z,3.31
2023-02-17T02:21:03.950Z,3.36
2023-02-17T02:22:03.911Z,3.65
2023-02-17T02:23:04.732Z,3.48
2023-02-17T02:24:04.256Z,3.48
2023-02-17T02:25:03.995Z,2.73
2023-02-17T02:26:03.955Z,2.95
2023-02-17T02:27:04.245Z,2.95
2023-02-17T02:28:04.095Z,2.92
2023-02-17T02:29:03.803Z,3.28
2023-02-17T02:30:04.670Z,3.69
2023-02-17T02:31:04.214Z,3.29
2023-02-17T02:32:03.937Z,3.29
2023-02-17T02:33:03.576Z,2.91
2023-02-17T02:34:04.296Z,2.98
2023-02-17T02:35:04.313Z,3.16
2023-02-17T02:36:04.151Z,3.55
2023-02-17T02:37:03.805Z,3.72
2023-02-17T02:38:06.880Z,2.45
2023-02-17T02:39:04.115Z,2.63
2023-02-17T02:40:03.832Z,3.61
2023-02-17T02:41:04.653Z,4.46
2023-02-17T02:42:04.173Z,3.52
2023-02-17T02:43:03.762Z,4.74
2023-02-17T02:44:03.492Z,4.71
2023-02-17T02:45:04.548Z,3.25
2023-02-17T02:46:04.131Z,3.21
2023-02-17T02:47:03.744Z,2.8
2023-02-17T02:48:04.385Z,2.72
2023-02-17T02:49:04.069Z,3.59
2023-02-17T02:50:03.707Z,3.06
2023-02-17T02:51:04.624Z,2.22
2023-02-17T02:52:04.036Z,3.84
2023-02-17T02:53:03.860Z,3.3
2023-02-17T02:54:04.969Z,4.08
2023-02-17T02:55:04.315Z,2.99
2023-02-17T02:56:04.300Z,2.59
2023-02-17T02:57:03.556Z,2.78
2023-02-17T02:58:04.422Z,3.28
2023-02-17T02:59:04.079Z,3.61
2023-02-17T03:00:03.715Z,3.04
2023-02-17T03:01:04.768Z,2.74
2023-02-17T03:02:04.147Z,2.4
2023-02-17T03:03:03.859Z,3.45
2023-02-17T03:04:04.585Z,2.14
2023-02-17T03:05:04.032Z,3.41
2023-02-17T03:06:04.115Z,4.06
2023-02-17T03:07:03.597Z,2.86
2023-02-17T03:08:04.388Z,3.21
2023-02-17T03:09:03.883Z,4.61
2023-02-17T03:10:03.820Z,4.48
2023-02-17T03:11:04.480Z,2.15
2023-02-17T03:12:04.075Z,4.62
2023-02-17T03:13:03.947Z,3.66
2023-02-17T03:14:03.522Z,2.33
2023-02-17T03:15:04.351Z,3.11
2023-02-17T03:16:03.966Z,3.11
2023-02-17T03:17:04.514Z,2.17
2023-02-17T03:18:04.250Z,2.31
2023-02-17T03:19:03.949Z,4.04
2023-02-17T03:20:03.642Z,2.84
2023-02-17T03:21:04.480Z,2.48
2023-02-17T03:22:04.095Z,4.64
2023-02-17T03:23:03.773Z,2.41
2023-02-17T03:24:04.438Z,2.69
2023-02-17T03:25:04.030Z,3.77
2023-02-17T03:26:04.022Z,3.71
2023-02-17T03:27:04.477Z,3.12
2023-02-17T03:28:04.187Z,3.62
2023-02-17T03:29:03.817Z,2.95
2023-02-17T03:30:04.495Z,1.86
2023-02-17T03:31:04.003Z,2.6
2023-02-17T03:32:03.771Z,4.25
2023-02-17T03:33:04.438Z,2.71
2023-02-17T03:34:04.098Z,3.31
2023-02-17T03:35:03.923Z,2.78
2023-02-17T03:36:04.767Z,2.56
2023-02-17T03:37:04.028Z,3.64
2023-02-17T03:38:03.770Z,2.95
2023-02-17T03:39:04.363Z,2.35
2023-02-17T03:40:03.961Z,3.2
2023-02-17T03:41:03.730Z,1.87
2023-02-17T03:42:04.478Z,3.92
2023-02-17T03:43:04.184Z,4.2
2023-02-17T03:44:03.972Z,3.28
2023-02-17T03:45:04.652Z,2.98
2023-02-17T03:46:04.233Z,2.78
2023-02-17T03:47:03.911Z,2.79
2023-02-17T03:48:03.634Z,1.89
2023-02-17T03:49:04.299Z,2.76
2023-02-17T03:50:04.016Z,2.29
2023-02-17T03:51:03.791Z,2.16
2023-02-17T03:52:04.581Z,4.04
2023-02-17T03:53:03.931Z,2.79
2023-02-17T03:54:03.704Z,2.73
2023-02-17T03:55:04.485Z,3.11
2023-02-17T03:56:04.417Z,2.4
2023-02-17T03:57:04.034Z,1.65
2023-02-17T03:58:03.418Z,2.41
2023-02-17T03:59:04.208Z,2.17
2023-02-17T04:00:03.983Z,1.74
2023-02-17T04:01:04.634Z,1.75
2023-02-17T04:02:04.218Z,1.59
2023-02-17T04:03:03.641Z,1.38
2023-02-17T04:04:04.482Z,3.04
2023-02-17T04:05:04.295Z,3.04
2023-02-17T04:06:04.261Z,2.23
2023-02-17T04:07:03.729Z,2.23
2023-02-17T04:08:04.414Z,1.97
2023-02-17T04:09:04.001Z,1.42
2023-02-17T04:10:08.995Z,1.42
2023-02-17T04:11:04.653Z,2.08
2023-02-17T04:12:04.414Z,1.72
2023-02-17T04:13:04.122Z,2.7
2023-02-17T04:14:04.015Z,1.49
2023-02-17T04:15:04.319Z,1.92
2023-02-17T04:16:03.909Z,1.72
2023-02-17T04:17:04.324Z,2.32
2023-02-17T04:18:03.977Z,1.62
2023-02-17T04:19:03.822Z,1.64
2023-02-17T04:20:04.456Z,3.4
2023-02-17T04:21:03.948Z,1.51
2023-02-17T04:22:04.086Z,1.76
2023-02-17T04:23:03.901Z,2.55
2023-02-17T04:24:04.511Z,2.79
2023-02-17T04:25:04.078Z,1.36
2023-02-17T04:26:03.896Z,2.51
2023-02-17T04:27:04.390Z,2.73
2023-02-17T04:28:04.135Z,2.54
2023-02-17T04:29:03.944Z,1.59
2023-02-17T04:30:04.665Z,1.49
2023-02-17T04:31:04.141Z,1.64
2023-02-17T04:32:04.773Z,1.63
2023-02-17T04:33:04.108Z,1.45
2023-02-17T04:34:04.025Z,1.66
2023-02-17T04:35:03.717Z,2.03
2023-02-17T04:36:04.642Z,1.29
2023-02-17T04:37:04.299Z,2.13
2023-02-17T04:38:03.913Z,1.28
2023-02-17T04:39:04.474Z,2.14
2023-02-17T04:40:04.334Z,1.78
2023-02-17T04:41:03.937Z,2.26
2023-02-17T04:42:03.558Z,2.24
2023-02-17T04:43:04.154Z,2.25
2023-02-17T04:44:03.853Z,2.16
2023-02-17T04:45:03.611Z,1.81
2023-02-17T04:46:04.794Z,2.55
2023-02-17T04:47:03.846Z,1.78
2023-02-17T04:48:03.747Z,2.32
2023-02-17T04:49:04.349Z,1.8
2023-02-17T04:50:04.166Z,3.24
2023-02-17T04:51:03.847Z,1.72
2023-02-17T04:52:04.579Z,1.77
2023-02-17T04:53:04.084Z,1.79
2023-02-17T04:54:03.941Z,2.01
2023-02-17T04:55:03.697Z,2.01
2023-02-17T04:56:04.464Z,2
2023-02-17T04:57:03.988Z,1.55
2023-02-17T04:58:04.497Z,1.65
2023-02-17T04:59:04.305Z,0.98
2023-02-17T05:00:04.136Z,1.82
2023-02-17T05:01:04.156Z,1.58
2023-02-17T05:02:03.725Z,1.7
2023-02-17T05:03:03.712Z,1.22
2023-02-17T05:04:04.220Z,1.51
2023-02-17T05:05:04.318Z,2.18
2023-02-17T05:06:04.249Z,2.26
2023-02-17T05:07:03.512Z,2.63
2023-02-17T05:08:04.447Z,3.04
2023-02-17T05:09:03.877Z,1.95
2023-02-17T05:10:03.780Z,2.15
2023-02-17T05:11:04.325Z,2.49
2023-02-17T05:12:04.167Z,1.44
2023-02-17T05:13:03.992Z,1.31
2023-02-17T05:14:04.493Z,2.24
2023-02-17T05:15:04.258Z,1.94
2023-02-17T05:16:04.187Z,1.66
2023-02-17T05:17:03.665Z,2.13
2023-02-17T05:18:04.283Z,2.22
2023-02-17T05:19:03.873Z,1.99
2023-02-17T05:20:03.672Z,2.61
2023-02-17T05:21:04.244Z,2.75
2023-02-17T05:22:04.034Z,1.44
2023-02-17T05:23:03.929Z,1.19
2023-02-17T05:24:03.760Z,1.43
2023-02-17T05:25:04.149Z,1.26
2023-02-17T05:26:04.381Z,1.74
2023-02-17T05:27:03.832Z,1.96
2023-02-17T05:28:04.544Z,2.56
2023-02-17T05:29:03.996Z,1.72
2023-02-17T05:30:03.957Z,2.08
2023-02-17T05:31:03.713Z,1.72
2023-02-17T05:32:04.639Z,3.43
2023-02-17T05:33:04.238Z,1.37
2023-02-17T05:34:03.870Z,1.34
2023-02-17T05:35:03.514Z,1.31
2023-02-17T05:36:04.624Z,1.32
2023-02-17T05:37:03.758Z,3
2023-02-17T05:38:03.576Z,1.86
2023-02-17T05:39:04.326Z,1.12
2023-02-17T05:40:03.960Z,1.09
2023-02-17T05:41:03.739Z,1.55
2023-02-17T05:42:04.453Z,2.64
2023-02-17T05:43:04.071Z,2.39
2023-02-17T05:44:03.801Z,1.28
2023-02-17T05:45:04.449Z,1.54
2023-02-17T05:46:04.096Z,2.32
2023-02-17T05:47:03.739Z,2.32
2023-02-17T05:48:03.529Z,1.68
2023-02-17T05:49:04.363Z,1.18
2023-02-17T05:50:04.095Z,1.18
2023-02-17T05:51:03.862Z,1.28
2023-02-17T05:52:04.462Z,1.61
2023-02-17T05:53:04.166Z,1.61
2023-02-17T05:54:03.717Z,2.82
2023-02-17T05:55:04.688Z,2.12
2023-02-17T05:56:04.591Z,1.89
2023-02-17T05:57:04.050Z,1.46
2023-02-17T05:58:03.735Z,1.57
2023-02-17T05:59:04.210Z,1.93
2023-02-17T06:00:04.019Z,2.14
2023-02-17T06:01:04.287Z,1.81
2023-02-17T06:02:03.844Z,1.54
2023-02-17T06:03:04.792Z,2.73
2023-02-17T06:04:04.361Z,1.7
2023-02-17T06:05:04.328Z,1.78
2023-02-17T06:06:03.726Z,1.8
2023-02-17T06:07:03.914Z,2.62
2023-02-17T06:08:04.626Z,1.89
2023-02-17T06:09:04.222Z,2.09
2023-02-17T06:10:03.992Z,1.46
2023-02-17T06:11:03.806Z,2.19
2023-02-17T06:12:04.592Z,2.42
2023-02-17T06:13:04.282Z,1.32
2023-02-17T06:14:04.095Z,1.56
2023-02-17T06:15:03.809Z,1.41
2023-02-17T06:16:05.030Z,1.5
2023-02-17T06:17:04.650Z,1.5
2023-02-17T06:18:04.244Z,1.91
2023-02-17T06:19:03.804Z,2.21
2023-02-17T06:20:04.289Z,1.23
2023-02-17T06:21:04.246Z,1.68
2023-02-17T06:22:03.657Z,1.29
2023-02-17T06:23:04.418Z,1.89
2023-02-17T06:24:04.317Z,1.74
2023-02-17T06:25:03.812Z,1.49
2023-02-17T06:26:04.873Z,1.95
2023-02-17T06:27:04.206Z,1.96
2023-02-17T06:28:03.914Z,2.75
2023-02-17T06:29:04.804Z,1.92
2023-02-17T06:30:04.254Z,2.22
2023-02-17T06:31:04.470Z,1.91
2023-02-17T06:32:04.068Z,2.53
2023-02-17T06:33:04.489Z,1.11
2023-02-17T06:34:06.426Z,1.61
2023-02-17T06:35:03.925Z,1.69
2023-02-17T06:36:04.918Z,1.69
2023-02-17T06:37:04.233Z,1.4
2023-02-17T06:38:03.990Z,1.4
2023-02-17T06:39:03.681Z,1.97
2023-02-17T06:40:04.274Z,1.28
2023-02-17T06:41:04.118Z,2.05
2023-02-17T06:42:03.876Z,1.63
2023-02-17T06:43:03.666Z,2.5
2023-02-17T06:44:04.237Z,1.84
2023-02-17T06:45:03.911Z,1.54
2023-02-17T06:46:04.858Z,1.82
2023-02-17T06:47:03.944Z,1.31
2023-02-17T06:48:03.797Z,1.41
2023-02-17T06:49:04.488Z,1.55
2023-02-17T06:50:03.954Z,1.56
2023-02-17T06:51:03.722Z,1.48
2023-02-17T06:52:04.441Z,1.62
2023-02-17T06:53:04.103Z,1.14
2023-02-17T06:54:03.859Z,2.11
2023-02-17T06:55:04.638Z,2.04
2023-02-17T06:56:04.659Z,2.51
2023-02-17T06:57:03.900Z,1.63
2023-02-17T06:58:03.680Z,1.36
2023-02-17T06:59:04.536Z,1.34
2023-02-17T07:00:04.159Z,1.62
2023-02-17T07:01:04.530Z,1.84
2023-02-17T07:02:05.064Z,1.93
2023-02-17T07:03:03.990Z,2.74
2023-02-17T07:04:04.594Z,1.73
2023-02-17T07:05:04.265Z,1.81
2023-02-17T07:06:04.066Z,2.59
2023-02-17T07:07:04.420Z,2.36
2023-02-17T07:08:04.120Z,1.48
2023-02-17T07:09:03.691Z,1.24
2023-02-17T07:10:04.661Z,1.84
2023-02-17T07:11:04.361Z,1.95
2023-02-17T07:12:03.917Z,1.6
2023-02-17T07:13:03.750Z,0.96
2023-02-17T07:14:04.461Z,1.12
2023-02-17T07:15:04.092Z,1.68
2023-02-17T07:16:04.526Z,0.95
2023-02-17T07:17:04.042Z,2.08
2023-02-17T07:18:03.817Z,1.44
2023-02-17T07:19:04.518Z,1.23
2023-02-17T07:20:04.313Z,1.23
2023-02-17T07:21:04.091Z,2.04
2023-02-17T07:22:03.504Z,0.92
2023-02-17T07:23:04.789Z,1.58
2023-02-17T07:24:04.275Z,1.36
2023-02-17T07:25:03.885Z,1.21
2023-02-17T07:26:03.818Z,1.21
2023-02-17T07:27:04.160Z,2.05
2023-02-17T07:28:04.114Z,0.94
2023-02-17T07:29:03.752Z,0.94
2023-02-17T07:30:04.661Z,1.65
2023-02-17T07:31:03.996Z,1.29
2023-02-17T07:32:04.740Z,1.58
2023-02-17T07:33:06.869Z,1.71
2023-02-17T07:34:04.161Z,1.66
2023-02-17T07:35:03.987Z,1.12
2023-02-17T07:36:03.914Z,1.16
2023-02-17T07:37:04.309Z,2.25
2023-02-17T07:38:04.122Z,2.18
2023-02-17T07:39:03.835Z,1.57
2023-02-17T07:40:03.691Z,1.81
2023-02-17T07:41:04.405Z,1.5
2023-02-17T07:42:04.001Z,1.81
2023-02-17T07:43:03.748Z,1.37
2023-02-17T07:44:04.433Z,1.34
2023-02-17T07:45:04.141Z,1.06
2023-02-17T07:46:04.063Z,1.69
2023-02-17T07:47:03.756Z,0.86
2023-02-17T07:48:04.349Z,1.21
2023-02-17T07:49:04.240Z,1.16
2023-02-17T07:50:04.096Z,2.46
2023-02-17T07:51:03.789Z,1.31
2023-02-17T07:52:07.185Z,1.14
2023-02-17T07:53:03.830Z,1.32
2023-02-17T07:54:04.413Z,1.14
2023-02-17T07:55:04.032Z,1.46
2023-02-17T07:56:04.230Z,1.35
2023-02-17T07:57:04.741Z,1.75
2023-02-17T07:58:04.196Z,1.35
2023-02-17T07:59:04.313Z,1.19
2023-02-17T08:00:04.096Z,0.95
2023-02-17T08:01:03.855Z,1.51
2023-02-17T08:02:04.763Z,1.08
2023-02-17T08:03:04.269Z,0.75
2023-02-17T08:04:04.131Z,0.9
2023-02-17T08:05:04.676Z,1.18
2023-02-17T08:06:04.927Z,1.14
2023-02-17T08:07:04.113Z,1.4
2023-02-17T08:08:03.667Z,0.86
2023-02-17T08:09:04.548Z,0.84
2023-02-17T08:10:04.350Z,1.86
2023-02-17T08:11:04.332Z,0.99
2023-02-17T08:12:03.786Z,0.95
2023-02-17T08:13:03.642Z,1.41
2023-02-17T08:14:04.356Z,0.94
2023-02-17T08:15:04.210Z,1.39
2023-02-17T08:16:04.234Z,0.91
2023-02-17T08:17:03.687Z,1.54
2023-02-17T08:18:04.500Z,1.54
2023-02-17T08:19:05.701Z,1.58
2023-02-17T08:20:10.100Z,0.96
2023-02-17T08:21:04.876Z,0.96
2023-02-17T08:22:04.365Z,0.8
2023-02-17T08:23:03.944Z,1.76
2023-02-17T08:24:03.835Z,1.78
2023-02-17T08:25:04.440Z,0.99
2023-02-17T08:26:04.472Z,1.38
2023-02-17T08:27:03.783Z,1.02
2023-02-17T08:28:04.450Z,1.47
2023-02-17T08:29:04.072Z,0.54
2023-02-17T08:30:04.093Z,1.74
2023-02-17T08:31:04.665Z,1.23
2023-02-17T08:32:04.193Z,1.36
2023-02-17T08:33:04.598Z,0.79
2023-02-17T08:34:04.295Z,1.81
2023-02-17T08:35:04.020Z,1.69
2023-02-17T08:36:03.849Z,2.79
2023-02-17T08:37:04.679Z,1.28
2023-02-17T08:38:04.146Z,1.16
2023-02-17T08:39:03.834Z,0.76
2023-02-17T08:40:04.510Z,1.18
2023-02-17T08:41:04.476Z,1.23
2023-02-17T08:42:04.087Z,1.24
2023-02-17T08:43:05.752Z,1
2023-02-17T08:44:03.837Z,0.78
2023-02-17T08:45:04.412Z,1.64
2023-02-17T08:46:04.516Z,1.09
2023-02-17T08:47:04.262Z,0.95
2023-02-17T08:48:04.247Z,1.37
2023-02-17T08:49:03.941Z,1.48
2023-02-17T08:50:04.435Z,1.41
2023-02-17T08:51:04.462Z,1.36
2023-02-17T08:52:04.119Z,0.74
2023-02-17T08:53:03.912Z,1.14
2023-02-17T08:54:03.735Z,0.81
2023-02-17T08:55:04.507Z,1.81
2023-02-17T08:56:04.655Z,0.89
2023-02-17T08:57:04.159Z,0.85
2023-02-17T08:58:03.853Z,0.81
2023-02-17T08:59:04.492Z,1.21
2023-02-17T09:00:05.629Z,0.85
2023-02-17T09:01:04.229Z,1.27
2023-02-17T09:02:04.030Z,1.35
2023-02-17T09:03:04.482Z,1.48
2023-02-17T09:04:04.220Z,1.33
2023-02-17T09:05:04.082Z,0.88
2023-02-17T09:06:03.834Z,0.92
2023-02-17T09:07:04.629Z,0.92
2023-02-17T09:08:04.383Z,0.96
2023-02-17T09:09:03.832Z,0.96
2023-02-17T09:10:03.698Z,1.6
2023-02-17T09:11:04.384Z,1.29
2023-02-17T09:12:03.870Z,1.09
2023-02-17T09:13:03.956Z,1.3
2023-02-17T09:14:04.591Z,1.26
2023-02-17T09:15:04.182Z,0.77
2023-02-17T09:16:04.711Z,0.92
2023-02-17T09:17:04.091Z,1.62
2023-02-17T09:18:04.014Z,0.92
2023-02-17T09:19:03.742Z,1.45
2023-02-17T09:20:09.279Z,1.57
2023-02-17T09:21:03.780Z,0.49
2023-02-17T09:22:04.623Z,0.83
2023-02-17T09:23:03.823Z,0.79
2023-02-17T09:24:04.611Z,0.66
2023-02-17T09:25:04.484Z,0.84
2023-02-17T09:26:04.237Z,1.1
2023-02-17T09:27:03.639Z,2.49
2023-02-17T09:28:04.029Z,0.92
2023-02-17T09:29:04.220Z,1.6
2023-02-17T09:30:03.588Z,1.4
2023-02-17T09:31:04.264Z,1.35
2023-02-17T09:32:04.433Z,1.22
2023-02-17T09:33:03.502Z,1.19
2023-02-17T09:34:04.416Z,0.81
2023-02-17T09:35:04.186Z,1.38
2023-02-17T09:36:03.900Z,0.49
2023-02-17T09:37:04.487Z,1.67
2023-02-17T09:38:04.240Z,1.85
2023-02-17T09:39:04.038Z,1.18
2023-02-17T09:40:04.572Z,1.19
2023-02-17T09:41:04.231Z,0.74
2023-02-17T09:42:03.951Z,0.96
2023-02-17T09:43:03.761Z,1.06
2023-02-17T09:44:04.407Z,1
2023-02-17T09:45:03.856Z,1.11
2023-02-17T09:46:04.267Z,0.65
2023-02-17T09:47:05.250Z,0.88
2023-02-17T09:48:04.449Z,1.14
2023-02-17T09:49:04.046Z,1.62
2023-02-17T09:50:03.543Z,1.89
2023-02-17T09:51:04.161Z,0.91
2023-02-17T09:52:03.944Z,1.06
2023-02-17T09:53:04.762Z,1.23
2023-02-17T09:54:04.301Z,1.76
2023-02-17T09:55:04.048Z,1.06
2023-02-17T09:56:05.104Z,1.62
2023-02-17T09:57:04.449Z,1.36
2023-02-17T09:58:04.024Z,1.36
2023-02-17T09:59:04.590Z,1.4
2023-02-17T10:00:04.242Z,0.78
2023-02-17T10:01:04.085Z,0.78
2023-02-17T10:02:03.675Z,1.32
2023-02-17T10:03:04.756Z,0.86
2023-02-17T10:04:04.384Z,0.53
2023-02-17T10:05:04.032Z,0.99
2023-02-17T10:06:04.716Z,1.22
2023-02-17T10:07:04.106Z,2.06
2023-02-17T10:08:04.045Z,0.85
2023-02-17T10:09:03.808Z,1.18
2023-02-17T10:10:04.296Z,0.56
2023-02-17T10:11:04.264Z,0.7
2023-02-17T10:12:03.566Z,0.68
2023-02-17T10:13:04.517Z,1.57
2023-02-17T10:14:04.185Z,1.26
2023-02-17T10:15:03.759Z,1.41
2023-02-17T10:16:04.805Z,1.33
2023-02-17T10:17:04.186Z,1.54
2023-02-17T10:18:04.065Z,1.21
2023-02-17T10:19:03.967Z,1.08
2023-02-17T10:20:04.709Z,1.04
2023-02-17T10:21:04.269Z,1.01
2023-02-17T10:22:03.756Z,1.12
2023-02-17T10:23:04.535Z,0.64
2023-02-17T10:24:04.364Z,1.08
2023-02-17T10:25:03.936Z,0.85
2023-02-17T10:26:05.001Z,1.17
2023-02-17T10:27:04.319Z,0.81
2023-02-17T10:28:04.212Z,0.88
2023-02-17T10:29:04.015Z,1.66
2023-02-17T10:30:03.851Z,0.84
2023-02-17T10:31:03.786Z,1.28
2023-02-17T10:32:04.606Z,0.71
2023-02-17T10:33:04.121Z,1.34
2023-02-17T10:34:04.634Z,0.95
2023-02-17T10:35:04.266Z,0.6
2023-02-17T10:36:04.071Z,1.62
2023-02-17T10:37:04.704Z,0.78
2023-02-17T10:38:04.694Z,0.81
2023-02-17T10:39:04.237Z,1.19
2023-02-17T10:40:04.054Z,1.16
2023-02-17T10:41:03.922Z,0.9
2023-02-17T10:42:04.419Z,0.92
2023-02-17T10:43:07.100Z,1.1
2023-02-17T10:44:03.707Z,0.59
2023-02-17T10:45:04.442Z,0.92
2023-02-17T10:46:04.294Z,1.01
2023-02-17T10:47:03.710Z,0.65
2023-02-17T10:48:04.747Z,1.45
2023-02-17T10:49:06.913Z,1.45
2023-02-17T10:50:03.908Z,0.62
2023-02-17T10:51:03.711Z,1.64
2023-02-17T10:52:04.434Z,1.21
2023-02-17T10:53:04.164Z,0.91
2023-02-17T10:54:03.801Z,1.05
2023-02-17T10:55:22.254Z,0.68
2023-02-17T10:56:04.915Z,1.08
2023-02-17T10:57:04.024Z,0.89
2023-02-17T10:58:03.942Z,1.28
2023-02-17T10:59:03.637Z,0.74
2023-02-17T11:00:04.369Z,0.84
2023-02-17T11:01:04.953Z,0.42
2023-02-17T11:02:04.304Z,1.61
2023-02-17T11:03:04.170Z,0.98
2023-02-17T11:04:04.731Z,0.68
2023-02-17T11:05:04.094Z,0.91
2023-02-17T11:06:03.716Z,0.54
2023-02-17T11:07:03.643Z,0.8
2023-02-17T11:08:04.548Z,0.88
2023-02-17T11:09:04.316Z,1.05
2023-02-17T11:10:03.954Z,0.78
2023-02-17T11:11:03.670Z,0.63
2023-02-17T11:12:04.149Z,0.9
2023-02-17T11:13:03.788Z,1
2023-02-17T11:14:04.653Z,0.59
2023-02-17T11:15:04.333Z,1.09
2023-02-17T11:16:04.638Z,0.76
2023-02-17T11:17:03.869Z,0.55
2023-02-17T11:18:04.085Z,0.63
2023-02-17T11:19:04.789Z,0.89
2023-02-17T11:20:04.241Z,0.99
2023-02-17T11:21:04.102Z,0.75
2023-02-17T11:22:04.622Z,0.68
2023-02-17T11:23:04.267Z,0.59
2023-02-17T11:24:04.061Z,0.57
2023-02-17T11:25:03.767Z,0.74
2023-02-17T11:26:04.716Z,0.66
2023-02-17T11:27:04.290Z,0.67
2023-02-17T11:28:03.966Z,1.39
2023-02-17T11:29:04.394Z,0.66
2023-02-17T11:30:04.308Z,1.28
2023-02-17T11:31:04.224Z,0.7
2023-02-17T11:32:04.174Z,0.44
2023-02-17T11:33:04.449Z,0.65
2023-02-17T11:34:04.208Z,1.09
2023-02-17T11:35:03.755Z,0.92
2023-02-17T11:36:04.691Z,0.59
2023-02-17T11:37:04.245Z,0.74
2023-02-17T11:38:04.102Z,0.74
2023-02-17T11:39:03.935Z,0.56
2023-02-17T11:40:04.491Z,0.56
2023-02-17T11:41:04.130Z,1.01
2023-02-17T11:42:04.004Z,0.74
2023-02-17T11:43:03.739Z,0.7
2023-02-17T11:44:04.389Z,0.55
2023-02-17T11:45:03.886Z,0.53
2023-02-17T11:46:05.052Z,0.46
2023-02-17T11:47:04.353Z,0.83
2023-02-17T11:48:03.976Z,0.96
2023-02-17T11:49:03.775Z,0.91
2023-02-17T11:50:04.456Z,0.69
2023-02-17T11:51:04.268Z,1.16
2023-02-17T11:52:04.021Z,1.4
2023-02-17T11:53:03.679Z,0.83
2023-02-17T11:54:04.279Z,0.72
2023-02-17T11:55:04.072Z,0.59
2023-02-17T11:56:03.876Z,0.74
2023-02-17T11:57:04.318Z,0.61
2023-02-17T11:58:04.103Z,0.56
2023-02-17T11:59:03.876Z,0.34
2023-02-17T12:00:03.746Z,0.49
2023-02-17T12:01:04.439Z,0.3
2023-02-17T12:02:03.874Z,1.11
2023-02-17T12:03:03.755Z,0.74
2023-02-17T12:04:04.369Z,0.58
2023-02-17T12:05:04.402Z,0.92
2023-02-17T12:06:04.202Z,0.48
2023-02-17T12:07:03.715Z,0.62
2023-02-17T12:08:04.406Z,1.29
2023-02-17T12:09:04.182Z,0.62
2023-02-17T12:10:03.652Z,0.43
2023-02-17T12:11:03.909Z,0.39
2023-02-17T12:12:04.413Z,0.64
2023-02-17T12:13:04.119Z,0.54
2023-02-17T12:14:03.650Z,1.39
2023-02-17T12:15:04.495Z,1.39
2023-02-17T12:16:04.216Z,0.74
2023-02-17T12:17:03.631Z,0.91
2023-02-17T12:18:04.494Z,0.54
2023-02-17T12:19:04.186Z,0.65
2023-02-17T12:20:03.832Z,0.85
2023-02-17T12:21:04.529Z,0.52
2023-02-17T12:22:04.200Z,0.53
2023-02-17T12:23:03.969Z,0.47
2023-02-17T12:24:04.692Z,1.23
2023-02-17T12:25:04.609Z,0.62
2023-02-17T12:26:03.998Z,0.56
2023-02-17T12:27:03.948Z,0.9
2023-02-17T12:28:03.601Z,0.64
2023-02-17T12:29:04.227Z,1.04
2023-02-17T12:30:04.254Z,1.04
2023-02-17T12:31:05.109Z,0.7
2023-02-17T12:32:04.361Z,0.89
2023-02-17T12:33:03.753Z,0.89
2023-02-17T12:34:04.373Z,0.87
2023-02-17T12:35:03.875Z,0.99
2023-02-17T12:36:03.557Z,0.74
2023-02-17T12:37:04.385Z,0.52
2023-02-17T12:38:04.302Z,0.39
2023-02-17T12:39:03.911Z,1.03
2023-02-17T12:40:04.607Z,0.66
2023-02-17T12:41:04.344Z,0.69
2023-02-17T12:42:04.143Z,0.35
2023-02-17T12:43:03.582Z,1.33
2023-02-17T12:44:04.533Z,1.24
2023-02-17T12:45:04.418Z,0.62
2023-02-17T12:46:04.383Z,0.53
2023-02-17T12:47:03.771Z,0.59
2023-02-17T12:48:03.695Z,0.86
2023-02-17T12:49:06.543Z,0.62
2023-02-17T12:50:04.329Z,0.5
2023-02-17T12:51:04.097Z,0.66
2023-02-17T12:52:03.716Z,0.88
2023-02-17T12:53:04.456Z,0.77
2023-02-17T12:54:03.801Z,0.7
2023-02-17T12:55:03.726Z,0.56
2023-02-17T12:56:04.757Z,0.47
2023-02-17T12:57:04.214Z,0.98
2023-02-17T12:58:03.957Z,0.58
2023-02-17T12:59:03.664Z,0.61
2023-02-17T13:00:04.010Z,1.97
2023-02-17T13:01:06.855Z,0.61
2023-02-17T13:02:04.071Z,1.16
2023-02-17T13:03:04.445Z,0.61
2023-02-17T13:04:04.235Z,0.64
2023-02-17T13:05:03.885Z,0.96
2023-02-17T13:06:04.196Z,0.59
2023-02-17T13:07:03.986Z,0.62
2023-02-17T13:08:04.557Z,0.78
2023-02-17T13:09:04.482Z,0.83
2023-02-17T13:10:03.905Z,1.21
2023-02-17T13:11:03.794Z,0.75
2023-02-17T13:12:04.383Z,0.46
2023-02-17T13:13:04.125Z,0.68
2023-02-17T13:14:03.963Z,1.22
2023-02-17T13:15:04.594Z,0.7
2023-02-17T13:16:04.622Z,0.69
2023-02-17T13:17:04.066Z,0.58
2023-02-17T13:18:03.835Z,0.72
2023-02-17T13:19:04.545Z,0.72
2023-02-17T13:20:04.280Z,1.08